Fairview, Mississippi
Current Conditions -  °F | °C
As of 11:53 AM on Thursday 23 Oct 2014 (Local Time) from KTUP Reporting Station
Clear Clear  
Wind Chill: 61°   Ceiling: Unl
Heat Index: 61°   Visibility: 10mi
Dew Point: 44°   Wind: 0mph
Humidity: 54%   Direction: NA
Pressure: 30.18"   Gusts: NA
Location:  34.4864°N, 88.182°W
Report Text: KTUP 231653Z 00000KT 10SM CLR 16/07 A3018 RMK AO2 SLP219 T01610067
Loading
Personal Weather Stations






























Interactive Weather Map
Tropical Storm Tracking
New forecast layout! Learn more

10-Day Weather Forecast

Advertisements
Track Severe Weather on mobile